createdAt,value
2022-07-25T00:02:07.313Z,98559.88
2022-07-25T00:04:48.832Z,98565.22
2022-07-25T00:07:32.623Z,98562.84
2022-07-25T00:10:04.430Z,98562.03
2022-07-25T00:12:32.894Z,98565.31
2022-07-25T00:15:04.142Z,98552.50
2022-07-25T00:17:39.815Z,98550.13
2022-07-25T00:20:19.561Z,98552.09
2022-07-25T00:22:50.887Z,98556.56
2022-07-25T00:25:24.337Z,98556.28
2022-07-25T00:27:55.302Z,98554.66
2022-07-25T00:30:24.695Z,98547.72
2022-07-25T00:33:02.463Z,98547.84
2022-07-25T00:35:45.136Z,98548.91
2022-07-25T00:38:17.490Z,98557.47
2022-07-25T00:40:53.556Z,98558.72
2022-07-25T00:43:30.012Z,98530.19
2022-07-25T00:46:02.263Z,98549.75
2022-07-25T00:48:58.006Z,98542.56
2022-07-25T00:51:29.067Z,98534.78
2022-07-25T00:54:01.530Z,98545.81
2022-07-25T00:56:30.316Z,98551.69
2022-07-25T00:59:06.823Z,98537.47
2022-07-25T01:01:46.249Z,98543.59
2022-07-25T01:04:49.597Z,98541.69
2022-07-25T01:07:20.926Z,98540.22
2022-07-25T01:09:58.082Z,98541.41
2022-07-25T01:12:44.448Z,98540.47
2022-07-25T01:15:21.388Z,98538.50
2022-07-25T01:17:52.193Z,98539.06
2022-07-25T01:20:30.180Z,98542.81
2022-07-25T01:22:58.997Z,98536.84
2022-07-25T01:25:37.062Z,98524.69
2022-07-25T01:28:17.266Z,98540.63
2022-07-25T01:30:53.334Z,98525.81
2022-07-25T01:33:29.625Z,98533.22
2022-07-25T01:36:03.298Z,98529.38
2022-07-25T01:38:47.605Z,98536.50
2022-07-25T01:41:26.658Z,98529.31
2022-07-25T01:44:00.757Z,98532.91
2022-07-25T01:46:34.358Z,98531.78
2022-07-25T01:49:08.485Z,98533.47
2022-07-25T01:51:41.164Z,98528.63
2022-07-25T01:54:18.294Z,98534.19
2022-07-25T01:56:52.983Z,98526.00
2022-07-25T01:59:30.647Z,98515.94
2022-07-25T02:02:01.283Z,98535.59
2022-07-25T02:04:39.837Z,98531.69
2022-07-25T02:07:24.179Z,98526.94
2022-07-25T02:10:04.531Z,98511.66
2022-07-25T02:12:36.426Z,98537.50
2022-07-25T02:15:06.981Z,98528.19
2022-07-25T02:17:39.961Z,98522.97
2022-07-25T02:20:12.824Z,98518.28
2022-07-25T02:23:03.184Z,98524.13
2022-07-25T02:25:39.200Z,98511.94
2022-07-25T02:28:15.252Z,98521.78
2022-07-25T02:30:43.955Z,98528.09
2022-07-25T02:33:13.022Z,98525.13
2022-07-25T02:35:41.877Z,98528.34
2022-07-25T02:38:16.502Z,98467.38
2022-07-25T02:40:52.484Z,98525.50
2022-07-25T02:43:27.627Z,98507.84
2022-07-25T02:45:57.026Z,98522.72
2022-07-25T02:48:28.994Z,98521.41
2022-07-25T02:51:02.721Z,98519.06
2022-07-25T02:53:56.701Z,98520.13
2022-07-25T02:56:37.197Z,98514.56
2022-07-25T02:59:15.250Z,98507.59
2022-07-25T03:01:46.263Z,98508.16
2022-07-25T03:04:17.770Z,98517.16
2022-07-25T03:06:47.404Z,98512.59
2022-07-25T03:09:18.009Z,98507.66
2022-07-25T03:11:52.790Z,98511.25
2022-07-25T03:14:30.288Z,98515.31
2022-07-25T03:17:04.285Z,98514.78
2022-07-25T03:19:36.251Z,98506.84
2022-07-25T03:22:07.074Z,98502.16
2022-07-25T03:24:39.823Z,98501.50
2022-07-25T03:27:16.713Z,98512.41
2022-07-25T03:30:01.146Z,98518.53
2022-07-25T03:32:32.157Z,98520.19
2022-07-25T03:35:03.961Z,98512.78
2022-07-25T03:37:33.052Z,98513.97
2022-07-25T03:40:13.208Z,98501.81
2022-07-25T03:42:44.920Z,98511.09
2022-07-25T03:45:16.999Z,98524.63
2022-07-25T03:48:01.483Z,98519.69
2022-07-25T03:50:34.300Z,98520.03
2022-07-25T03:53:10.431Z,98510.91
2022-07-25T03:55:45.678Z,98525.81
2022-07-25T03:58:17.082Z,98522.13
2022-07-25T04:00:53.978Z,98513.91
2022-07-25T04:03:26.322Z,98520.50
2022-07-25T04:05:59.280Z,98524.38
2022-07-25T04:08:31.732Z,98517.38
2022-07-25T04:11:02.066Z,98522.78
2022-07-25T04:13:36.003Z,98505.06
2022-07-25T04:16:14.619Z,98528.38
2022-07-25T04:18:58.162Z,98518.94
2022-07-25T04:21:34.021Z,98498.25
2022-07-25T04:24:12.528Z,98516.41
2022-07-25T04:26:46.922Z,98518.41
2022-07-25T04:29:20.140Z,98509.78
2022-07-25T04:31:52.151Z,98514.06
2022-07-25T04:34:26.481Z,98523.66
2022-07-25T04:36:58.318Z,98519.81
2022-07-25T04:39:33.418Z,98518.75
2022-07-25T04:42:14.375Z,98516.84
2022-07-25T04:44:43.510Z,98516.94
2022-07-25T04:47:13.298Z,98520.06
2022-07-25T04:49:57.741Z,98523.00
2022-07-25T04:52:29.907Z,98518.38
2022-07-25T04:54:59.107Z,98519.19
2022-07-25T04:57:28.705Z,98524.75
2022-07-25T05:00:08.133Z,98527.28
2022-07-25T05:02:49.983Z,98528.59
2022-07-25T05:05:22.387Z,98521.34
2022-07-25T05:07:53.678Z,98524.50
2022-07-25T05:10:25.747Z,98513.50
2022-07-25T05:12:53.998Z,98511.44
2022-07-25T05:15:28.108Z,98499.81
2022-07-25T05:17:59.975Z,98505.59
2022-07-25T05:20:37.170Z,98500.47
2022-07-25T05:23:13.410Z,98496.66
2022-07-25T05:25:57.610Z,98506.88
2022-07-25T05:28:31.918Z,98502.91
2022-07-25T05:31:06.260Z,98492.16
2022-07-25T05:33:49.135Z,98482.06
2022-07-25T05:36:23.584Z,98494.00
2022-07-25T05:38:57.521Z,98496.16
2022-07-25T05:41:28.868Z,98493.88
2022-07-25T05:44:02.106Z,98492.34
2022-07-25T05:46:33.120Z,98500.81
2022-07-25T05:49:13.827Z,98494.78
2022-07-25T05:51:49.855Z,98480.47
2022-07-25T05:54:30.345Z,98495.44
2022-07-25T05:57:03.504Z,98479.72
2022-07-25T05:59:36.391Z,98478.63
2022-07-25T06:02:10.719Z,98477.16
2022-07-25T06:04:46.508Z,98478.06
2022-07-25T06:07:16.945Z,98465.28
2022-07-25T06:09:55.290Z,98465.44
2022-07-25T06:12:25.278Z,98466.31
2022-07-25T06:14:57.687Z,98461.47
2022-07-25T06:17:32.530Z,98465.19
2022-07-25T06:20:05.311Z,98418.69
2022-07-25T06:22:42.193Z,98454.34
2022-07-25T06:25:24.441Z,98447.06
2022-07-25T06:27:56.406Z,98456.44
2022-07-25T06:33:12.715Z,98447.19
2022-07-25T06:35:45.664Z,98449.78
2022-07-25T06:38:26.409Z,98453.44
2022-07-25T06:41:12.021Z,98449.41
2022-07-25T06:43:49.953Z,98444.94
2022-07-25T06:46:35.839Z,98438.53
2022-07-25T06:49:09.682Z,98447.03
2022-07-25T06:51:46.886Z,98389.25
2022-07-25T06:54:18.592Z,98434.16
2022-07-25T06:56:51.000Z,98439.47
2022-07-25T06:59:23.190Z,98443.91
2022-07-25T07:02:00.127Z,98438.25
2022-07-25T07:04:33.025Z,98435.44
2022-07-25T07:07:13.127Z,98426.56
2022-07-25T07:09:52.013Z,98413.19
2022-07-25T07:12:23.142Z,98415.16
2022-07-25T07:14:53.397Z,98418.38
2022-07-25T07:20:09.257Z,98399.66
2022-07-25T07:22:51.683Z,98412.22
2022-07-25T07:25:28.643Z,98404.16
2022-07-25T07:28:06.170Z,98404.91
2022-07-25T07:33:50.067Z,98410.00
2022-07-25T07:36:26.810Z,98403.53
2022-07-25T07:39:04.095Z,98405.03
2022-07-25T07:41:36.555Z,98400.47
2022-07-25T07:44:17.223Z,98388.69
2022-07-25T07:46:55.283Z,98405.59
2022-07-25T07:49:28.768Z,98397.50
2022-07-25T07:52:05.771Z,98393.81
2022-07-25T07:54:59.296Z,98395.06
2022-07-25T07:57:30.104Z,98381.91
2022-07-25T08:00:11.488Z,98389.00
2022-07-25T08:02:58.847Z,98388.81
2022-07-25T08:05:32.805Z,98383.16
2022-07-25T08:08:10.125Z,98391.66
2022-07-25T08:10:43.401Z,98378.91
2022-07-25T08:13:28.164Z,98387.56
2022-07-25T08:16:03.317Z,98380.97
2022-07-25T08:18:36.596Z,98387.34
2022-07-25T08:21:08.827Z,98379.25
2022-07-25T08:23:40.033Z,98379.69
2022-07-25T08:26:16.705Z,98382.91
2022-07-25T08:29:04.929Z,98376.47
2022-07-25T08:31:39.086Z,98371.63
2022-07-25T08:34:15.630Z,98363.50
2022-07-25T08:36:54.874Z,98358.09
2022-07-25T08:42:11.222Z,98344.91
2022-07-25T08:44:48.600Z,98349.34
2022-07-25T08:47:26.534Z,98346.41
2022-07-25T08:49:55.078Z,98337.06
2022-07-25T08:52:30.746Z,98311.00
2022-07-25T08:54:59.636Z,98324.50
2022-07-25T08:57:33.477Z,98328.06
2022-07-25T09:00:03.489Z,98318.94
2022-07-25T09:02:40.662Z,98321.94
2022-07-25T09:05:11.123Z,98311.47
2022-07-25T09:07:47.826Z,98308.91
2022-07-25T09:10:35.080Z,98312.34
2022-07-25T09:13:20.846Z,98311.06
2022-07-25T09:16:01.058Z,98296.59
2022-07-25T09:18:37.537Z,98297.50
2022-07-25T09:21:15.961Z,98275.72
2022-07-25T09:23:54.158Z,98289.16
2022-07-25T09:26:25.611Z,98283.84
2022-07-25T09:28:56.671Z,98290.69
2022-07-25T09:31:35.076Z,98243.59
2022-07-25T09:34:26.422Z,98279.31
2022-07-25T09:36:56.978Z,98288.63
2022-07-25T09:39:46.444Z,98292.03
2022-07-25T09:42:25.230Z,98276.00
2022-07-25T09:45:15.300Z,98287.91
2022-07-25T09:48:16.073Z,98269.75
2022-07-25T09:50:53.231Z,98280.63
2022-07-25T09:53:24.158Z,98260.34
2022-07-25T09:56:01.049Z,98269.34
2022-07-25T09:58:40.849Z,98266.00
2022-07-25T10:01:10.854Z,98277.66
2022-07-25T10:04:19.189Z,98267.16
2022-07-25T10:07:20.244Z,98253.69
2022-07-25T10:09:54.228Z,98258.44
2022-07-25T10:12:28.171Z,98250.50
2022-07-25T10:15:32.176Z,98251.78
2022-07-25T10:18:13.434Z,98247.75
2022-07-25T10:20:47.025Z,98246.13
2022-07-25T10:23:31.942Z,98245.00
2022-07-25T10:26:16.021Z,98242.59
2022-07-25T10:28:48.720Z,98242.59
2022-07-25T10:31:51.622Z,98232.19
2022-07-25T10:34:34.733Z,98226.19
2022-07-25T10:37:24.529Z,98222.78
2022-07-25T10:39:53.260Z,98220.69
2022-07-25T10:42:36.802Z,98214.41
2022-07-25T10:45:13.214Z,98213.22
2022-07-25T10:47:55.185Z,98193.69
2022-07-25T10:50:54.534Z,98196.94
2022-07-25T10:54:02.453Z,98197.97
2022-07-25T10:56:31.496Z,98196.66
2022-07-25T10:59:03.023Z,98192.56
2022-07-25T11:01:37.470Z,98187.44
2022-07-25T11:04:12.205Z,98182.28
2022-07-25T11:06:44.596Z,98178.56
2022-07-25T11:09:29.744Z,98173.16
2022-07-25T11:12:04.491Z,98171.16
2022-07-25T11:14:43.442Z,98171.53
2022-07-25T11:17:32.671Z,98158.22
2022-07-25T11:20:05.767Z,98148.50
2022-07-25T11:22:48.523Z,98154.00
2022-07-25T11:25:21.832Z,98151.25
2022-07-25T11:28:12.654Z,98150.72
2022-07-25T11:30:46.743Z,98141.50
2022-07-25T11:33:19.851Z,98142.09
2022-07-25T11:35:51.303Z,98134.25
2022-07-25T11:38:33.728Z,98128.44
2022-07-25T11:41:08.182Z,98129.75
2022-07-25T11:43:52.573Z,98125.91
2022-07-25T11:46:34.333Z,98119.22
2022-07-25T11:49:09.466Z,98108.03
2022-07-25T11:51:49.807Z,98107.97
2022-07-25T11:54:23.865Z,98102.75
2022-07-25T11:56:57.706Z,98106.53
2022-07-25T11:59:26.921Z,98099.38
2022-07-25T12:01:59.482Z,98092.31
2022-07-25T12:04:34.185Z,98103.91
2022-07-25T12:07:06.761Z,98090.31
2022-07-25T12:09:38.273Z,98084.41
2022-07-25T12:12:17.776Z,98074.28
2022-07-25T12:14:51.786Z,98072.31
2022-07-25T12:17:26.100Z,98066.34
2022-07-25T12:19:57.405Z,98068.25
2022-07-25T12:22:28.259Z,98065.84
2022-07-25T12:25:04.418Z,98055.34
2022-07-25T12:27:32.943Z,98062.09
2022-07-25T12:30:07.613Z,98052.13
2022-07-25T12:32:44.579Z,98046.88
2022-07-25T12:35:21.554Z,98040.94
2022-07-25T12:37:59.215Z,98044.34
2022-07-25T12:40:31.806Z,98045.41
2022-07-25T12:43:09.041Z,98041.44
2022-07-25T12:45:40.022Z,98027.19
2022-07-25T12:48:17.523Z,98024.28
2022-07-25T12:51:00.733Z,98023.38
2022-07-25T12:53:37.816Z,98013.34
2022-07-25T12:56:19.958Z,98018.97
2022-07-25T12:58:56.770Z,98006.09
2022-07-25T13:01:30.789Z,98002.50
2022-07-25T13:04:03.112Z,98000.78
2022-07-25T13:06:38.489Z,98000.72
2022-07-25T13:09:10.650Z,98001.59
2022-07-25T13:11:49.688Z,98000.72
2022-07-25T13:14:19.952Z,97992.00
2022-07-25T13:16:54.905Z,97986.09
2022-07-25T13:19:25.841Z,97988.66
2022-07-25T13:21:59.368Z,97974.75
2022-07-25T13:24:31.585Z,97972.97
2022-07-25T13:26:59.923Z,97972.88
2022-07-25T13:29:32.907Z,97967.78
2022-07-25T13:32:12.366Z,97966.28
2022-07-25T13:34:50.130Z,97959.97
2022-07-25T13:37:20.922Z,97955.66
2022-07-25T13:40:01.132Z,97950.63
2022-07-25T13:42:31.381Z,97944.63
2022-07-25T13:45:02.518Z,97939.41
2022-07-25T13:50:23.244Z,97937.81
2022-07-25T13:52:57.195Z,97925.44
2022-07-25T13:55:27.635Z,97925.22
2022-07-25T13:57:59.148Z,97917.50
2022-07-25T14:00:31.162Z,97916.78
2022-07-25T14:03:08.689Z,97908.97
2022-07-25T14:05:46.120Z,97909.97
2022-07-25T14:08:29.312Z,97904.09
2022-07-25T14:11:03.138Z,97896.53
2022-07-25T14:13:37.417Z,97890.28
2022-07-25T14:16:18.366Z,97897.31
2022-07-25T14:18:52.782Z,97896.16
2022-07-25T14:21:30.480Z,97884.31
2022-07-25T14:24:03.720Z,97891.06
2022-07-25T14:26:44.401Z,97887.97
2022-07-25T14:29:25.938Z,97883.06
2022-07-25T14:32:00.462Z,97877.88
2022-07-25T14:34:35.448Z,97877.41
2022-07-25T14:37:04.312Z,97860.47
2022-07-25T14:39:36.772Z,97865.94
2022-07-25T14:42:07.484Z,97868.00
2022-07-25T14:44:47.179Z,97860.22
2022-07-25T14:47:29.313Z,97860.44
2022-07-25T14:50:01.022Z,97854.84
2022-07-25T14:52:36.960Z,97856.81
2022-07-25T14:55:16.905Z,97841.78
2022-07-25T14:57:46.092Z,97851.75
2022-07-25T15:00:29.429Z,97833.34
2022-07-25T15:03:08.081Z,97843.00
2022-07-25T15:05:46.391Z,97839.81
2022-07-25T15:08:24.357Z,97833.28
2022-07-25T15:10:55.309Z,97846.66
2022-07-25T15:13:35.869Z,97831.03
2022-07-25T15:16:15.587Z,97833.59
2022-07-25T15:19:14.726Z,97822.97
2022-07-25T15:21:38.609Z,97816.84
2022-07-25T15:24:11.238Z,97795.72
2022-07-25T15:26:44.145Z,97812.72
2022-07-25T15:29:27.723Z,97812.28
2022-07-25T15:31:56.878Z,97808.66
2022-07-25T15:34:31.660Z,97808.25
2022-07-25T15:37:00.357Z,97806.34
2022-07-25T15:39:37.457Z,97788.22
2022-07-25T15:42:11.245Z,97780.31
2022-07-25T15:44:42.676Z,97795.56
2022-07-25T15:47:18.665Z,97804.81
2022-07-25T15:49:50.888Z,97795.88
2022-07-25T15:52:24.894Z,97797.69
2022-07-25T15:55:05.306Z,97792.94
2022-07-25T15:57:36.928Z,97795.91
2022-07-25T16:00:17.261Z,97799.25
2022-07-25T16:02:49.749Z,97796.59
2022-07-25T16:05:23.401Z,97786.97
2022-07-25T16:08:10.178Z,97800.63
2022-07-25T16:10:46.512Z,97790.16
2022-07-25T16:13:18.581Z,97786.28
2022-07-25T16:15:54.744Z,97784.63
2022-07-25T16:18:28.221Z,97777.06
2022-07-25T16:21:01.718Z,97781.06
2022-07-25T16:23:45.296Z,97781.28
2022-07-25T16:26:20.637Z,97782.53
2022-07-25T16:29:06.104Z,97774.69
2022-07-25T16:31:35.861Z,97780.28
2022-07-25T16:34:14.506Z,97778.03
2022-07-25T16:36:49.016Z,97772.78
2022-07-25T16:39:31.931Z,97763.63
2022-07-25T16:42:07.971Z,97768.47
2022-07-25T16:44:50.637Z,97759.59
2022-07-25T16:47:26.990Z,97761.53
2022-07-25T16:50:10.395Z,97756.13
2022-07-25T16:52:46.537Z,97766.41
2022-07-25T16:55:22.999Z,97758.00
2022-07-25T16:57:58.848Z,97750.66
2022-07-25T17:00:36.915Z,97743.13
2022-07-25T17:03:06.323Z,97750.41
2022-07-25T17:05:43.774Z,97749.63
2022-07-25T17:08:17.640Z,97751.59
2022-07-25T17:10:46.488Z,97753.34
2022-07-25T17:13:20.932Z,97745.06
2022-07-25T17:15:51.776Z,97749.59
2022-07-25T17:18:24.043Z,97749.59
2022-07-25T17:21:04.880Z,97749.44
2022-07-25T17:23:38.471Z,97753.13
2022-07-25T17:26:09.751Z,97742.44
2022-07-25T17:28:40.225Z,97739.81
2022-07-25T17:31:14.060Z,97742.84
2022-07-25T17:33:51.534Z,97739.69
2022-07-25T17:36:30.913Z,97738.91
2022-07-25T17:39:00.002Z,97735.25
2022-07-25T17:41:33.643Z,97734.84
2022-07-25T17:44:11.586Z,97741.19
2022-07-25T17:46:47.031Z,97744.06
2022-07-25T17:49:20.829Z,97739.78
2022-07-25T17:52:03.709Z,97735.69
2022-07-25T17:54:35.989Z,97736.47
2022-07-25T17:57:06.324Z,97736.13
2022-07-25T17:59:40.065Z,97732.91
2022-07-25T18:02:10.649Z,97733.34
2022-07-25T18:04:53.171Z,97736.22
2022-07-25T18:07:24.753Z,97734.28
2022-07-25T18:10:00.858Z,97744.75
2022-07-25T18:12:42.634Z,97735.63
2022-07-25T18:15:18.270Z,97729.44
2022-07-25T18:17:59.256Z,97736.38
2022-07-25T18:20:32.443Z,97733.75
2022-07-25T18:23:11.336Z,97735.34
2022-07-25T18:25:41.494Z,97737.22
2022-07-25T18:28:20.320Z,97736.97
2022-07-25T18:30:53.781Z,97735.69
2022-07-25T18:33:27.336Z,97739.84
2022-07-25T18:35:55.660Z,97732.09
2022-07-25T18:38:29.127Z,97733.53
2022-07-25T18:41:26.358Z,97747.38
2022-07-25T18:43:58.356Z,97730.66
2022-07-25T18:46:33.644Z,97733.94
2022-07-25T18:49:07.025Z,97756.47
2022-07-25T18:51:38.166Z,97750.63
2022-07-25T18:54:23.495Z,97766.81
2022-07-25T18:56:59.604Z,97771.03
2022-07-25T18:59:33.865Z,97769.66
2022-07-25T19:02:22.108Z,97771.25
2022-07-25T19:04:56.034Z,97779.31
2022-07-25T19:07:33.210Z,97784.22
2022-07-25T19:10:13.307Z,97784.31
2022-07-25T19:12:43.800Z,97782.66
2022-07-25T19:15:18.127Z,97786.06
2022-07-25T19:17:56.794Z,97793.25
2022-07-25T19:20:28.920Z,97801.91
2022-07-25T19:23:02.376Z,97792.66
2022-07-25T19:25:47.624Z,97808.38
2022-07-25T19:28:18.891Z,97810.78
2022-07-25T19:30:49.717Z,97811.94
2022-07-25T19:33:21.633Z,97816.81
2022-07-25T19:35:50.746Z,97815.97
2022-07-25T19:38:37.716Z,97812.75
2022-07-25T19:41:18.957Z,97818.53
2022-07-25T19:43:52.207Z,97815.63
2022-07-25T19:46:32.388Z,97814.66
2022-07-25T19:49:10.576Z,97812.44
2022-07-25T19:51:41.632Z,97809.56
2022-07-25T19:54:11.700Z,97801.03
2022-07-25T19:56:43.982Z,97803.06
2022-07-25T19:59:15.048Z,97810.84
2022-07-25T20:01:50.494Z,97812.69
2022-07-25T20:04:26.674Z,97826.44
2022-07-25T20:07:05.217Z,97828.66
2022-07-25T20:09:36.055Z,97824.84
2022-07-25T20:12:04.649Z,97825.72
2022-07-25T20:14:44.098Z,97824.84
2022-07-25T20:17:16.301Z,97831.94
2022-07-25T20:19:48.986Z,97831.88
2022-07-25T20:25:01.751Z,97838.59
2022-07-25T20:27:39.194Z,97850.69
2022-07-25T20:30:22.349Z,97853.03
2022-07-25T20:32:54.225Z,97856.44
2022-07-25T20:35:22.430Z,97854.78
2022-07-25T20:37:54.131Z,97863.34
2022-07-25T20:40:27.209Z,97864.19
2022-07-25T20:43:00.150Z,97879.06
2022-07-25T20:45:31.907Z,97873.56
2022-07-25T20:48:08.855Z,97891.94
2022-07-25T20:53:22.540Z,97868.19
2022-07-25T20:56:01.718Z,97892.69
2022-07-25T20:58:39.835Z,97886.03
2022-07-25T21:01:28.328Z,97882.69
2022-07-25T21:04:07.284Z,97893.22
2022-07-25T21:06:42.250Z,97879.44
2022-07-25T21:09:19.592Z,97886.19
2022-07-25T21:11:47.909Z,97885.88
2022-07-25T21:14:25.582Z,97889.47
2022-07-25T21:16:56.363Z,97896.44
2022-07-25T21:19:33.177Z,97891.69
2022-07-25T21:22:17.433Z,97889.47
2022-07-25T21:24:58.443Z,97871.84
2022-07-25T21:27:29.175Z,97883.91
2022-07-25T21:30:00.087Z,97896.66
2022-07-25T21:32:31.016Z,97889.75
2022-07-25T21:35:02.080Z,97886.50
2022-07-25T21:37:38.226Z,97879.66
2022-07-25T21:40:10.191Z,97876.34
2022-07-25T21:42:43.077Z,97880.56
2022-07-25T21:45:24.273Z,97884.31
2022-07-25T21:48:02.311Z,97884.41
2022-07-25T21:50:44.248Z,97889.09
2022-07-25T21:53:29.917Z,97887.38
2022-07-25T21:56:04.414Z,97893.00
2022-07-25T21:58:38.461Z,97887.72
2022-07-25T22:01:11.914Z,97864.75
2022-07-25T22:03:49.117Z,97887.81
2022-07-25T22:06:23.079Z,97894.19
2022-07-25T22:08:59.754Z,97893.63
2022-07-25T22:11:42.318Z,97892.06
2022-07-25T22:14:15.974Z,97897.16
2022-07-25T22:16:49.908Z,97891.91
2022-07-25T22:19:22.472Z,97897.91
2022-07-25T22:21:55.971Z,97891.59
2022-07-25T22:24:29.513Z,97893.44
2022-07-25T22:27:00.493Z,97903.06
2022-07-25T22:29:39.911Z,97891.50
2022-07-25T22:32:11.864Z,97893.91
2022-07-25T22:34:47.033Z,97900.38
2022-07-25T22:37:15.970Z,97900.19
2022-07-25T22:39:49.441Z,97909.19
2022-07-25T22:42:20.203Z,97915.22
2022-07-25T22:44:53.010Z,97917.94
2022-07-25T22:47:25.772Z,97913.53
2022-07-25T22:49:56.897Z,97915.28
2022-07-25T22:52:31.183Z,97918.50
2022-07-25T22:55:02.523Z,97914.56
2022-07-25T22:57:37.751Z,97925.03
2022-07-25T23:00:23.635Z,97917.34
2022-07-25T23:03:01.081Z,97912.50
2022-07-25T23:05:40.590Z,97912.38
2022-07-25T23:08:27.564Z,97922.94
2022-07-25T23:10:57.167Z,97906.88
2022-07-25T23:13:34.258Z,97918.91
2022-07-25T23:16:14.967Z,97914.81
2022-07-25T23:18:47.001Z,97907.66
2022-07-25T23:21:25.819Z,97912.06
2022-07-25T23:23:59.676Z,97897.91
2022-07-25T23:26:31.393Z,97889.00
2022-07-25T23:29:02.729Z,97886.59
2022-07-25T23:31:33.613Z,97885.81
2022-07-25T23:34:07.763Z,97875.16
2022-07-25T23:36:52.743Z,97866.75
2022-07-25T23:39:29.083Z,97865.47
2022-07-25T23:42:19.889Z,97857.88
2022-07-25T23:44:54.110Z,97861.47
2022-07-25T23:47:39.248Z,97866.81
2022-07-25T23:50:13.816Z,97853.16
2022-07-25T23:52:41.581Z,97864.03
2022-07-25T23:55:15.262Z,97868.50
2022-07-25T23:57:46.746Z,97868.09
